createdAt,value
2019-03-30T00:02:25.546Z,17.37
2019-03-30T00:04:54.166Z,10.83
2019-03-30T00:07:24.071Z,15.50
2019-03-30T00:09:52.372Z,14.97
2019-03-30T00:12:23.024Z,21.63
2019-03-30T00:14:52.016Z,15.87
2019-03-30T00:17:21.078Z,21.83
2019-03-30T00:19:50.018Z,14.07
2019-03-30T00:22:19.062Z,15.33
2019-03-30T00:24:47.614Z,13.70
2019-03-30T00:27:15.842Z,24.83
2019-03-30T00:29:44.905Z,15.60
2019-03-30T00:32:13.455Z,15.90
2019-03-30T00:34:42.798Z,12.97
2019-03-30T00:37:11.369Z,15.00
2019-03-30T00:39:39.870Z,14.13
2019-03-30T00:42:08.433Z,13.57
2019-03-30T00:44:36.710Z,16.50
2019-03-30T00:47:04.822Z,16.40
2019-03-30T00:49:33.108Z,15.30
2019-03-30T00:52:01.453Z,17.50
2019-03-30T00:54:29.691Z,13.07
2019-03-30T00:56:58.907Z,13.70
2019-03-30T00:59:27.105Z,13.23
2019-03-30T01:01:56.360Z,10.70
2019-03-30T01:04:24.987Z,16.80
2019-03-30T01:06:53.938Z,17.07
2019-03-30T01:09:22.423Z,15.63
2019-03-30T01:11:50.716Z,18.10
2019-03-30T01:14:20.468Z,12.53
2019-03-30T01:16:48.856Z,17.43
2019-03-30T01:19:17.765Z,17.90
2019-03-30T01:21:47.111Z,21.00
2019-03-30T01:24:16.363Z,14.17
2019-03-30T01:26:48.702Z,16.90
2019-03-30T01:29:18.184Z,16.97
2019-03-30T01:31:47.283Z,18.57
2019-03-30T01:34:15.135Z,15.07
2019-03-30T01:36:44.122Z,16.80
2019-03-30T01:39:12.612Z,18.10
2019-03-30T01:41:41.211Z,15.53
2019-03-30T01:44:10.186Z,14.60
2019-03-30T01:46:39.203Z,17.53
2019-03-30T01:49:08.252Z,16.53
2019-03-30T01:51:35.776Z,18.63
2019-03-30T01:54:03.614Z,16.63
2019-03-30T01:56:32.196Z,15.83
2019-03-30T01:59:00.110Z,18.97
2019-03-30T02:01:29.460Z,17.27
2019-03-30T02:03:58.665Z,18.73
2019-03-30T02:06:27.533Z,17.73
2019-03-30T02:08:56.154Z,13.73
2019-03-30T02:11:24.337Z,18.93
2019-03-30T02:13:53.359Z,17.50
2019-03-30T02:16:22.433Z,11.90
2019-03-30T02:18:55.007Z,14.23
2019-03-30T02:21:23.993Z,20.83
2019-03-30T02:23:53.422Z,17.03
2019-03-30T02:26:22.864Z,20.37
2019-03-30T02:28:51.791Z,14.73
2019-03-30T02:31:20.149Z,11.73
2019-03-30T02:33:49.469Z,13.33
2019-03-30T02:36:18.598Z,13.70
2019-03-30T02:38:46.582Z,13.53
2019-03-30T02:41:15.116Z,12.03
2019-03-30T02:43:44.184Z,18.27
2019-03-30T02:46:12.592Z,18.53
2019-03-30T02:48:41.187Z,13.13
2019-03-30T02:51:10.189Z,15.93
2019-03-30T02:53:39.452Z,15.40
2019-03-30T02:56:08.859Z,14.87
2019-03-30T02:58:40.286Z,14.17
2019-03-30T03:01:09.438Z,13.60
2019-03-30T03:03:38.812Z,13.30
2019-03-30T03:06:07.136Z,11.60
2019-03-30T03:08:36.708Z,17.20
2019-03-30T03:11:06.107Z,11.97
2019-03-30T03:13:34.825Z,13.33
2019-03-30T03:16:13.508Z,15.20
2019-03-30T03:18:43.743Z,10.93
2019-03-30T03:21:14.177Z,15.13
2019-03-30T03:23:43.264Z,13.43
2019-03-30T03:26:11.747Z,12.10
2019-03-30T03:28:40.216Z,16.50
2019-03-30T03:31:09.147Z,15.20
2019-03-30T03:33:38.081Z,17.37
2019-03-30T03:36:06.694Z,12.87
2019-03-30T03:38:34.551Z,18.17
2019-03-30T03:41:03.111Z,11.93
2019-03-30T03:43:32.262Z,13.47
2019-03-30T03:46:02.499Z,13.70
2019-03-30T03:48:31.327Z,28.67
2019-03-30T03:51:00.891Z,14.20
2019-03-30T03:53:32.009Z,14.23
2019-03-30T03:56:01.220Z,16.03
2019-03-30T03:58:32.844Z,13.80
2019-03-30T04:01:03.319Z,13.40
2019-03-30T04:03:33.208Z,12.30
2019-03-30T04:06:05.072Z,19.60
2019-03-30T04:08:43.971Z,17.77
2019-03-30T04:11:14.727Z,15.07
2019-03-30T04:13:45.385Z,12.03
2019-03-30T04:16:14.557Z,15.23
2019-03-30T04:18:47.655Z,18.33
2019-03-30T04:21:13.760Z,15.57
2019-03-30T04:23:42.005Z,15.00
2019-03-30T04:26:10.953Z,13.90
2019-03-30T04:28:38.821Z,18.17
2019-03-30T04:31:07.015Z,14.70
2019-03-30T04:33:35.736Z,13.30
2019-03-30T04:36:04.061Z,15.97
2019-03-30T04:38:33.033Z,15.43
2019-03-30T04:41:01.631Z,16.90
2019-03-30T04:43:30.644Z,13.30
2019-03-30T04:45:58.909Z,18.30
2019-03-30T04:48:29.532Z,17.07
2019-03-30T04:50:57.741Z,18.00
2019-03-30T04:53:26.768Z,15.50
2019-03-30T04:55:55.696Z,13.30
2019-03-30T04:58:24.164Z,18.50
2019-03-30T05:00:53.051Z,16.83
2019-03-30T05:03:21.395Z,15.60
2019-03-30T05:05:50.004Z,15.00
2019-03-30T05:08:18.904Z,11.80
2019-03-30T05:10:48.312Z,14.53
2019-03-30T05:13:17.760Z,17.57
2019-03-30T05:15:49.298Z,16.30
2019-03-30T05:18:20.996Z,14.03
2019-03-30T05:20:49.208Z,14.87
2019-03-30T05:23:19.666Z,15.33
2019-03-30T05:25:47.828Z,17.73
2019-03-30T05:28:16.122Z,17.23
2019-03-30T05:30:45.094Z,16.23
2019-03-30T05:33:14.402Z,14.83
2019-03-30T05:35:44.013Z,12.10
2019-03-30T05:38:12.999Z,13.10
2019-03-30T05:40:42.295Z,12.37
2019-03-30T05:43:11.039Z,14.83
2019-03-30T05:45:40.114Z,18.13
2019-03-30T05:48:11.658Z,14.53
2019-03-30T05:50:40.403Z,16.67
2019-03-30T05:53:10.240Z,15.33
2019-03-30T05:55:39.294Z,18.03
2019-03-30T05:58:07.567Z,15.10
2019-03-30T06:00:36.684Z,20.80
2019-03-30T06:03:05.294Z,14.50
2019-03-30T06:05:33.489Z,19.40
2019-03-30T06:08:02.472Z,19.67
2019-03-30T06:10:31.244Z,17.20
2019-03-30T06:12:59.926Z,14.80
2019-03-30T06:15:29.022Z,18.10
2019-03-30T06:17:57.671Z,17.83
2019-03-30T06:20:27.006Z,18.80
2019-03-30T06:22:55.932Z,18.70
2019-03-30T06:25:24.777Z,15.93
2019-03-30T06:27:53.485Z,25.53
2019-03-30T06:30:29.445Z,18.60
2019-03-30T06:32:58.343Z,20.27
2019-03-30T06:35:26.927Z,19.00
2019-03-30T06:37:55.496Z,20.47
2019-03-30T06:40:24.097Z,18.23
2019-03-30T06:42:52.766Z,19.50
2019-03-30T06:45:21.267Z,19.97
2019-03-30T06:47:50.076Z,27.10
2019-03-30T06:50:18.340Z,18.00
2019-03-30T06:52:57.576Z,20.43
2019-03-30T06:55:16.716Z,22.63
2019-03-30T06:57:44.996Z,24.40
2019-03-30T07:00:14.049Z,24.77
2019-03-30T07:02:43.673Z,19.03
2019-03-30T07:05:14.749Z,24.63
2019-03-30T07:07:45.897Z,28.07
2019-03-30T07:10:14.556Z,27.10
2019-03-30T07:12:42.739Z,22.77
2019-03-30T07:15:11.026Z,34.80
2019-03-30T07:17:46.402Z,23.33
2019-03-30T07:20:26.644Z,20.20
2019-03-30T07:22:56.041Z,21.27
2019-03-30T07:25:23.685Z,24.27
2019-03-30T07:27:51.628Z,17.47
2019-03-30T07:30:20.391Z,21.37
2019-03-30T07:32:49.328Z,17.87
2019-03-30T07:35:18.599Z,23.40
2019-03-30T07:37:47.597Z,27.30
2019-03-30T07:40:16.530Z,23.33
2019-03-30T07:42:47.344Z,21.10
2019-03-30T07:45:16.330Z,20.70
2019-03-30T07:47:45.430Z,21.53
2019-03-30T07:50:14.551Z,22.83
2019-03-30T07:52:43.847Z,21.50
2019-03-30T07:55:13.986Z,16.93
2019-03-30T07:57:46.403Z,24.97
2019-03-30T08:00:17.927Z,39.10
2019-03-30T08:02:46.668Z,23.10
2019-03-30T08:05:14.582Z,17.67
2019-03-30T08:07:43.242Z,34.93
2019-03-30T08:10:12.633Z,16.00
2019-03-30T08:12:43.178Z,17.83
2019-03-30T08:15:12.091Z,16.50
2019-03-30T08:17:40.254Z,28.93
2019-03-30T08:20:09.080Z,17.20
2019-03-30T08:22:38.616Z,22.27
2019-03-30T08:25:07.785Z,15.80
2019-03-30T08:27:36.094Z,136.67
2019-03-30T08:30:05.973Z,59.00
2019-03-30T08:32:34.215Z,48.87
2019-03-30T08:35:03.048Z,20.30
2019-03-30T08:37:31.617Z,25.37
2019-03-30T08:40:01.552Z,22.40
2019-03-30T08:42:30.704Z,28.20
2019-03-30T08:44:59.272Z,23.20
2019-03-30T08:47:27.566Z,28.13
2019-03-30T08:49:58.504Z,19.40
2019-03-30T08:52:27.326Z,21.80
2019-03-30T08:54:55.983Z,27.93
2019-03-30T08:57:25.310Z,33.03
2019-03-30T08:59:54.222Z,26.00
2019-03-30T09:02:22.482Z,21.00
2019-03-30T09:04:51.158Z,26.40
2019-03-30T09:07:19.914Z,30.70
2019-03-30T09:09:49.276Z,26.50
2019-03-30T09:12:18.348Z,55.67
2019-03-30T09:14:46.595Z,26.10
2019-03-30T09:17:17.214Z,30.33
2019-03-30T09:19:46.533Z,21.70
2019-03-30T09:22:17.600Z,24.70
2019-03-30T09:24:47.847Z,24.43
2019-03-30T09:27:16.499Z,37.80
2019-03-30T09:29:45.970Z,22.47
2019-03-30T09:32:15.151Z,31.87
2019-03-30T09:34:43.624Z,31.80
2019-03-30T09:37:12.126Z,37.10
2019-03-30T09:39:41.477Z,31.43
2019-03-30T09:42:11.423Z,25.30
2019-03-30T09:44:40.373Z,26.30
2019-03-30T09:47:10.066Z,21.87
2019-03-30T09:49:39.208Z,23.67
2019-03-30T09:52:09.587Z,28.20
2019-03-30T09:54:37.894Z,25.40
2019-03-30T09:57:07.464Z,25.33
2019-03-30T09:59:37.380Z,47.07
2019-03-30T10:02:06.548Z,25.43
2019-03-30T10:04:34.750Z,31.40
2019-03-30T10:07:03.364Z,22.63
2019-03-30T10:09:32.025Z,364.27
2019-03-30T10:12:00.960Z,420.47
2019-03-30T10:14:30.024Z,445.60
2019-03-30T10:16:58.251Z,432.53
2019-03-30T10:19:27.725Z,453.30
2019-03-30T10:21:56.804Z,439.53
2019-03-30T10:24:37.836Z,68.73
2019-03-30T10:26:59.122Z,152.83
2019-03-30T10:29:28.008Z,183.63
2019-03-30T10:31:59.684Z,283.60
2019-03-30T10:34:27.249Z,240.03
2019-03-30T10:36:55.564Z,133.40
2019-03-30T10:39:25.217Z,36.33
2019-03-30T10:41:54.703Z,22.30
2019-03-30T10:44:24.035Z,22.40
2019-03-30T10:46:52.702Z,22.60
2019-03-30T10:49:21.806Z,36.33
2019-03-30T10:51:50.509Z,24.40
2019-03-30T10:54:18.860Z,46.50
2019-03-30T10:56:47.235Z,39.87
2019-03-30T10:59:15.944Z,63.77
2019-03-30T11:01:44.699Z,109.17
2019-03-30T11:04:13.444Z,279.40
2019-03-30T11:06:41.758Z,296.20
2019-03-30T11:09:10.177Z,463.50
2019-03-30T11:11:38.665Z,454.20
2019-03-30T11:14:08.565Z,47.87
2019-03-30T11:16:39.072Z,31.73
2019-03-30T11:19:07.895Z,24.60
2019-03-30T11:21:35.772Z,33.67
2019-03-30T11:24:06.672Z,34.63
2019-03-30T11:26:34.965Z,21.67
2019-03-30T11:29:04.279Z,24.97
2019-03-30T11:31:32.567Z,22.40
2019-03-30T11:34:01.323Z,24.07
2019-03-30T11:36:29.619Z,23.33
2019-03-30T11:38:58.132Z,22.13
2019-03-30T11:41:26.926Z,25.07
2019-03-30T11:43:55.660Z,21.40
2019-03-30T11:46:24.170Z,20.40
2019-03-30T11:48:53.352Z,21.80
2019-03-30T11:51:22.560Z,24.63
2019-03-30T11:53:52.019Z,24.37
2019-03-30T11:56:22.893Z,29.80
2019-03-30T11:58:56.178Z,17.90
2019-03-30T12:01:26.702Z,26.40
2019-03-30T12:04:03.663Z,22.57
2019-03-30T12:06:34.124Z,23.13
2019-03-30T12:09:04.684Z,23.57
2019-03-30T12:11:35.484Z,23.80
2019-03-30T12:14:11.439Z,21.43
2019-03-30T12:16:43.384Z,18.07
2019-03-30T12:19:13.927Z,19.07
2019-03-30T12:21:42.970Z,21.43
2019-03-30T12:24:25.585Z,21.17
2019-03-30T12:26:55.652Z,21.17
2019-03-30T12:29:27.363Z,21.67
2019-03-30T12:31:57.925Z,22.33
2019-03-30T12:34:27.704Z,20.30
2019-03-30T12:36:57.228Z,44.13
2019-03-30T12:39:25.100Z,20.90
2019-03-30T12:41:54.189Z,24.57
2019-03-30T12:44:22.653Z,26.93
2019-03-30T12:46:52.131Z,21.63
2019-03-30T12:49:21.132Z,21.70
2019-03-30T12:51:50.197Z,18.20
2019-03-30T12:54:19.284Z,26.33
2019-03-30T12:56:49.919Z,20.60
2019-03-30T12:59:19.127Z,18.80
2019-03-30T13:01:49.255Z,22.43
2019-03-30T13:04:18.464Z,16.67
2019-03-30T13:06:47.251Z,34.93
2019-03-30T13:09:16.108Z,17.30
2019-03-30T13:11:44.253Z,33.63
2019-03-30T13:14:13.600Z,19.43
2019-03-30T13:16:42.719Z,16.37
2019-03-30T13:19:11.850Z,35.03
2019-03-30T13:21:52.126Z,33.73
2019-03-30T13:24:12.339Z,22.60
2019-03-30T13:26:40.952Z,26.27
2019-03-30T13:29:09.747Z,19.97
2019-03-30T13:31:41.370Z,18.33
2019-03-30T13:34:13.297Z,18.73
2019-03-30T13:36:44.890Z,19.67
2019-03-30T13:39:14.474Z,21.37
2019-03-30T13:41:43.413Z,21.87
2019-03-30T13:44:11.956Z,26.40
2019-03-30T13:46:40.900Z,22.83
2019-03-30T13:49:10.512Z,16.17
2019-03-30T13:51:39.833Z,21.13
2019-03-30T13:54:08.469Z,17.37
2019-03-30T13:56:37.905Z,16.43
2019-03-30T13:59:06.710Z,19.67
2019-03-30T14:01:35.071Z,22.30
2019-03-30T14:04:06.181Z,18.87
2019-03-30T14:06:36.653Z,20.33
2019-03-30T14:09:05.615Z,20.20
2019-03-30T14:11:35.521Z,20.47
2019-03-30T14:14:05.695Z,28.07
2019-03-30T14:16:35.294Z,22.37
2019-03-30T14:19:03.489Z,17.10
2019-03-30T14:21:32.859Z,24.87
2019-03-30T14:24:02.254Z,20.90
2019-03-30T14:26:31.995Z,18.50
2019-03-30T14:29:01.150Z,15.00
2019-03-30T14:31:30.152Z,23.83
2019-03-30T14:34:00.084Z,19.67
2019-03-30T14:36:28.732Z,11.97
2019-03-30T14:38:57.351Z,9.17
2019-03-30T14:41:26.332Z,14.00
2019-03-30T14:43:54.799Z,20.60
2019-03-30T14:46:23.600Z,18.90
2019-03-30T14:48:51.654Z,18.77
2019-03-30T14:51:20.983Z,18.67
2019-03-30T14:53:57.198Z,18.37
2019-03-30T14:56:26.878Z,32.57
2019-03-30T14:59:10.128Z,23.37
2019-03-30T15:01:30.933Z,18.43
2019-03-30T15:03:59.776Z,13.80
2019-03-30T15:06:30.223Z,14.70
2019-03-30T15:08:58.971Z,11.17
2019-03-30T15:11:27.773Z,20.13
2019-03-30T15:13:58.774Z,19.53
2019-03-30T15:16:32.009Z,14.97
2019-03-30T15:19:00.721Z,10.40
2019-03-30T15:21:29.560Z,8.80
2019-03-30T15:23:58.615Z,6.33
2019-03-30T15:26:27.284Z,9.47
2019-03-30T15:29:00.184Z,7.60
2019-03-30T15:31:32.606Z,9.77
2019-03-30T15:34:03.235Z,8.83
2019-03-30T15:36:31.411Z,8.70
2019-03-30T15:39:01.897Z,9.10
2019-03-30T15:41:30.229Z,10.03
2019-03-30T15:43:59.738Z,13.77
2019-03-30T15:46:29.087Z,23.93
2019-03-30T15:48:57.430Z,19.53
2019-03-30T15:51:25.713Z,17.00
2019-03-30T15:53:54.523Z,8.67
2019-03-30T15:56:22.980Z,17.77
2019-03-30T15:59:02.696Z,31.13
2019-03-30T16:01:31.931Z,22.47
2019-03-30T16:04:02.818Z,16.13
2019-03-30T16:06:31.066Z,9.60
2019-03-30T16:09:02.064Z,12.43
2019-03-30T16:11:31.009Z,17.53
2019-03-30T16:14:00.123Z,18.23
2019-03-30T16:16:28.573Z,24.50
2019-03-30T16:18:57.152Z,16.60
2019-03-30T16:21:27.213Z,19.53
2019-03-30T16:23:57.260Z,28.50
2019-03-30T16:26:40.983Z,19.33
2019-03-30T16:29:08.403Z,18.77
2019-03-30T16:31:39.701Z,18.33
2019-03-30T16:34:08.579Z,22.33
2019-03-30T16:36:37.130Z,19.50
2019-03-30T16:39:08.473Z,18.80
2019-03-30T16:41:38.920Z,12.73
2019-03-30T16:44:07.191Z,22.03
2019-03-30T16:46:37.865Z,16.73
2019-03-30T16:49:09.632Z,27.93
2019-03-30T16:51:38.627Z,36.80
2019-03-30T16:54:07.269Z,18.60
2019-03-30T16:56:38.128Z,24.70
2019-03-30T16:59:07.704Z,28.40
2019-03-30T17:01:36.793Z,11.73
2019-03-30T17:04:05.033Z,13.07
2019-03-30T17:06:43.650Z,35.20
2019-03-30T17:09:12.185Z,24.63
2019-03-30T17:11:42.402Z,15.40
2019-03-30T17:14:11.655Z,16.60
2019-03-30T17:16:40.855Z,29.70
2019-03-30T17:19:12.060Z,20.97
2019-03-30T17:21:40.563Z,22.93
2019-03-30T17:24:08.780Z,8.37
2019-03-30T17:26:41.960Z,9.97
2019-03-30T17:29:15.758Z,9.40
2019-03-30T17:31:43.677Z,8.43
2019-03-30T17:34:12.147Z,21.60
2019-03-30T17:36:42.309Z,32.37
2019-03-30T17:39:12.483Z,20.07
2019-03-30T17:41:44.432Z,14.90
2019-03-30T17:44:13.829Z,30.47
2019-03-30T17:46:43.516Z,11.07
2019-03-30T17:49:12.685Z,18.40
2019-03-30T17:51:43.082Z,26.40
2019-03-30T17:54:11.279Z,34.90
2019-03-30T17:56:40.432Z,16.57
2019-03-30T17:59:10.519Z,20.10
2019-03-30T18:01:43.240Z,17.83
2019-03-30T18:04:11.404Z,31.27
2019-03-30T18:06:41.427Z,24.67
2019-03-30T18:09:09.106Z,24.07
2019-03-30T18:11:37.927Z,19.73
2019-03-30T18:14:06.288Z,18.23
2019-03-30T18:16:35.317Z,25.10
2019-03-30T18:19:06.497Z,36.77
2019-03-30T18:21:37.914Z,23.03
2019-03-30T18:24:06.285Z,20.97
2019-03-30T18:26:36.069Z,28.77
2019-03-30T18:29:04.752Z,34.83
2019-03-30T18:31:34.423Z,25.03
2019-03-30T18:34:02.581Z,56.17
2019-03-30T18:36:33.295Z,23.10
2019-03-30T18:39:09.769Z,28.10
2019-03-30T18:41:37.386Z,28.43
2019-03-30T18:44:05.875Z,29.50
2019-03-30T18:46:35.012Z,20.63
2019-03-30T18:49:04.239Z,33.13
2019-03-30T18:51:32.892Z,21.07
2019-03-30T18:54:01.578Z,29.27
2019-03-30T18:56:30.276Z,25.00
2019-03-30T18:58:58.746Z,26.37
2019-03-30T19:01:28.316Z,24.23
2019-03-30T19:03:57.918Z,34.93
2019-03-30T19:06:26.240Z,36.00
2019-03-30T19:08:54.784Z,20.43
2019-03-30T19:11:23.691Z,44.97
2019-03-30T19:13:55.160Z,33.37
2019-03-30T19:16:22.999Z,68.83
2019-03-30T19:18:52.995Z,24.67
2019-03-30T19:21:21.570Z,28.80
2019-03-30T19:23:49.457Z,27.73
2019-03-30T19:26:20.869Z,27.20
2019-03-30T19:28:56.642Z,32.37
2019-03-30T19:31:23.400Z,14.23
2019-03-30T19:33:51.748Z,20.40
2019-03-30T19:36:26.396Z,22.53
2019-03-30T19:38:54.901Z,43.00
2019-03-30T19:41:24.134Z,26.43
2019-03-30T19:43:52.774Z,31.90
2019-03-30T19:46:22.647Z,25.50
2019-03-30T19:48:50.471Z,33.20
2019-03-30T19:51:19.156Z,21.80
2019-03-30T19:53:47.029Z,30.03
2019-03-30T19:56:15.540Z,47.27
2019-03-30T19:58:43.549Z,97.57
2019-03-30T20:01:12.209Z,53.57
2019-03-30T20:03:40.208Z,39.40
2019-03-30T20:06:08.719Z,40.17
2019-03-30T20:08:36.663Z,99.47
2019-03-30T20:11:04.549Z,50.50
2019-03-30T20:13:33.135Z,45.13
2019-03-30T20:16:01.038Z,81.73
2019-03-30T20:18:29.294Z,82.80
2019-03-30T20:20:57.485Z,49.03
2019-03-30T20:23:32.864Z,67.03
2019-03-30T20:26:00.887Z,45.10
2019-03-30T20:28:30.367Z,49.50
2019-03-30T20:30:58.683Z,24.03
2019-03-30T20:33:26.664Z,36.70
2019-03-30T20:35:55.253Z,55.97
2019-03-30T20:38:23.562Z,25.17
2019-03-30T20:40:52.286Z,26.93
2019-03-30T20:43:23.763Z,28.30
2019-03-30T20:45:51.675Z,46.33
2019-03-30T20:48:21.232Z,63.90
2019-03-30T20:50:54.115Z,40.90
2019-03-30T20:53:22.782Z,53.10
2019-03-30T20:55:51.386Z,48.30
2019-03-30T20:58:19.387Z,80.10
2019-03-30T21:00:49.517Z,62.27
2019-03-30T21:03:17.439Z,44.97
2019-03-30T21:05:46.057Z,47.83
2019-03-30T21:08:31.539Z,74.80
2019-03-30T21:11:01.557Z,59.67
2019-03-30T21:13:29.790Z,54.20
2019-03-30T21:15:58.377Z,47.10
2019-03-30T21:18:26.279Z,51.70
2019-03-30T21:20:54.653Z,49.83
2019-03-30T21:23:23.249Z,33.27
2019-03-30T21:25:55.941Z,48.03
2019-03-30T21:28:24.600Z,63.43
2019-03-30T21:30:53.543Z,55.23
2019-03-30T21:33:23.488Z,143.80
2019-03-30T21:35:52.897Z,74.83
2019-03-30T21:38:21.416Z,40.47
2019-03-30T21:40:51.854Z,61.23
2019-03-30T21:43:19.920Z,40.10
2019-03-30T21:45:48.046Z,53.67
2019-03-30T21:48:16.622Z,58.47
2019-03-30T21:50:45.413Z,50.47
2019-03-30T21:53:15.575Z,58.90
2019-03-30T21:55:46.297Z,24.60
2019-03-30T21:58:14.278Z,49.67
2019-03-30T22:00:43.021Z,35.00
2019-03-30T22:03:11.303Z,61.90
2019-03-30T22:05:42.679Z,74.40
2019-03-30T22:08:11.484Z,136.10
2019-03-30T22:10:40.582Z,37.20
2019-03-30T22:13:13.587Z,57.87
2019-03-30T22:15:42.110Z,81.07
2019-03-30T22:18:10.357Z,60.27
2019-03-30T22:20:38.886Z,44.70
2019-03-30T22:23:06.751Z,117.10
2019-03-30T22:25:37.075Z,113.60
2019-03-30T22:28:05.067Z,74.90
2019-03-30T22:30:33.230Z,39.63
2019-03-30T22:33:01.076Z,37.60
2019-03-30T22:35:29.284Z,50.13
2019-03-30T22:38:02.232Z,50.47
2019-03-30T22:40:30.174Z,41.27
2019-03-30T22:42:58.171Z,74.23
2019-03-30T22:45:26.269Z,33.37
2019-03-30T22:47:54.192Z,34.30
2019-03-30T22:50:22.797Z,34.40
2019-03-30T22:52:50.990Z,55.80
2019-03-30T22:55:19.330Z,71.67
2019-03-30T22:57:48.011Z,60.00
2019-03-30T23:00:38.838Z,113.73
2019-03-30T23:03:07.572Z,74.27
2019-03-30T23:05:36.208Z,77.43
2019-03-30T23:08:03.756Z,44.77
2019-03-30T23:10:32.263Z,53.10
2019-03-30T23:13:00.486Z,33.00
2019-03-30T23:15:28.380Z,38.13
2019-03-30T23:17:57.204Z,50.57
2019-03-30T23:20:25.565Z,52.53
2019-03-30T23:22:53.802Z,43.00
2019-03-30T23:25:22.330Z,66.27
2019-03-30T23:27:50.539Z,74.37
2019-03-30T23:30:18.752Z,49.20
2019-03-30T23:32:47.237Z,39.73
2019-03-30T23:35:17.243Z,41.27
2019-03-30T23:37:45.393Z,71.57
2019-03-30T23:40:13.853Z,79.47
2019-03-30T23:42:42.353Z,64.47
2019-03-30T23:45:10.350Z,30.70
2019-03-30T23:47:38.518Z,116.30
2019-03-30T23:50:07.080Z,97.37
2019-03-30T23:52:35.049Z,83.30
2019-03-30T23:55:02.921Z,64.53
2019-03-30T23:57:31.264Z,70.60
2019-03-30T23:59:59.125Z,37.97
